createdAt,value
2024-01-05T00:02:04.718Z,2.00
2024-01-05T00:04:31.403Z,1.85
2024-01-05T00:06:58.211Z,1.85
2024-01-05T00:09:26.163Z,1.87
2024-01-05T00:11:53.216Z,1.89
2024-01-05T00:14:19.799Z,1.93
2024-01-05T00:16:46.417Z,1.96
2024-01-05T00:19:13.110Z,1.89
2024-01-05T00:21:39.694Z,1.85
2024-01-05T00:24:06.510Z,1.78
2024-01-05T00:26:33.167Z,1.75
2024-01-05T00:28:59.709Z,1.83
2024-01-05T00:31:26.313Z,1.78
2024-01-05T00:33:53.055Z,1.88
2024-01-05T00:36:19.681Z,1.82
2024-01-05T00:38:46.235Z,1.81
2024-01-05T00:41:12.952Z,1.74
2024-01-05T00:43:39.666Z,1.70
2024-01-05T00:46:06.247Z,1.75
2024-01-05T00:48:32.987Z,1.80
2024-01-05T00:50:59.692Z,1.71
2024-01-05T00:53:26.230Z,1.77
2024-01-05T00:55:52.794Z,1.69
2024-01-05T00:58:19.505Z,1.55
2024-01-05T01:00:46.209Z,1.63
2024-01-05T01:03:13.032Z,1.70
2024-01-05T01:05:39.582Z,1.72
2024-01-05T01:08:06.386Z,1.67
2024-01-05T01:10:33.317Z,1.66
2024-01-05T01:13:02.365Z,1.69
2024-01-05T01:15:29.091Z,1.68
2024-01-05T01:17:55.873Z,1.82
2024-01-05T01:20:22.687Z,1.80
2024-01-05T01:22:49.307Z,1.75
2024-01-05T01:25:15.914Z,1.68
2024-01-05T01:27:42.486Z,1.54
2024-01-05T01:30:09.638Z,1.46
2024-01-05T01:32:36.480Z,1.47
2024-01-05T01:35:03.218Z,1.45
2024-01-05T01:37:29.953Z,1.33
2024-01-05T01:39:56.658Z,1.44
2024-01-05T01:42:23.363Z,1.37
2024-01-05T01:44:50.086Z,1.36
2024-01-05T01:47:17.033Z,1.19
2024-01-05T01:49:43.837Z,1.06
2024-01-05T01:52:10.812Z,1.11
2024-01-05T01:54:37.517Z,1.24
2024-01-05T01:57:05.961Z,1.27
2024-01-05T01:59:32.826Z,1.28
2024-01-05T02:02:00.241Z,1.31
2024-01-05T02:04:28.152Z,1.25
2024-01-05T02:06:55.481Z,1.31
2024-01-05T02:09:22.329Z,1.36
2024-01-05T02:11:49.039Z,1.42
2024-01-05T02:14:15.648Z,1.38
2024-01-05T02:16:42.783Z,1.27
2024-01-05T02:19:09.928Z,1.15
2024-01-05T02:21:43.113Z,1.09
2024-01-05T02:24:09.947Z,1.16
2024-01-05T02:26:36.682Z,1.14
2024-01-05T02:29:04.046Z,1.07
2024-01-05T02:31:30.762Z,0.98
2024-01-05T02:33:57.595Z,1.08
2024-01-05T02:36:24.284Z,1.01
2024-01-05T02:38:51.040Z,1.01
2024-01-05T02:41:17.596Z,1.15
2024-01-05T02:43:44.175Z,1.17
2024-01-05T02:46:10.713Z,1.20
2024-01-05T02:48:37.375Z,1.20
2024-01-05T02:51:04.244Z,1.23
2024-01-05T02:53:30.779Z,1.27
2024-01-05T02:55:57.311Z,1.18
2024-01-05T02:58:23.949Z,1.20
2024-01-05T03:00:50.759Z,1.29
2024-01-05T03:03:17.525Z,1.31
2024-01-05T03:05:44.280Z,1.17
2024-01-05T03:08:10.887Z,1.15
2024-01-05T03:10:37.511Z,1.02
2024-01-05T03:13:04.391Z,0.99
2024-01-05T03:15:31.103Z,0.88
2024-01-05T03:17:57.821Z,1.02
2024-01-05T03:20:24.429Z,1.18
2024-01-05T03:22:50.988Z,1.13
2024-01-05T03:25:17.510Z,1.01
2024-01-05T03:27:44.021Z,0.91
2024-01-05T03:30:11.105Z,0.81
2024-01-05T03:32:37.834Z,0.75
2024-01-05T03:35:04.751Z,0.74
2024-01-05T03:37:31.314Z,0.82
2024-01-05T03:39:57.841Z,0.94
2024-01-05T03:42:24.445Z,0.99
2024-01-05T03:44:51.100Z,0.93
2024-01-05T03:47:17.680Z,1.00
2024-01-05T03:49:44.314Z,1.07
2024-01-05T03:52:10.962Z,1.14
2024-01-05T03:54:37.501Z,1.16
2024-01-05T03:57:04.430Z,1.06
2024-01-05T03:59:31.032Z,0.91
2024-01-05T04:01:57.579Z,0.77
2024-01-05T04:04:24.244Z,0.91
2024-01-05T04:06:51.531Z,0.98
2024-01-05T04:09:18.122Z,0.88
2024-01-05T04:11:44.804Z,0.89
2024-01-05T04:14:11.356Z,0.88
2024-01-05T04:16:37.904Z,0.92
2024-01-05T04:19:04.684Z,0.93
2024-01-05T04:21:31.961Z,1.04
2024-01-05T04:23:59.496Z,0.92
2024-01-05T04:26:26.882Z,0.93
2024-01-05T04:28:53.653Z,0.93
2024-01-05T04:31:20.319Z,0.87
2024-01-05T04:33:47.083Z,0.89
2024-01-05T04:36:13.806Z,0.95
2024-01-05T04:38:40.346Z,0.94
2024-01-05T04:41:07.198Z,0.95
2024-01-05T04:43:33.819Z,1.02
2024-01-05T04:46:01.134Z,0.92
2024-01-05T04:48:27.973Z,0.96
2024-01-05T04:50:54.738Z,0.88
2024-01-05T04:53:21.404Z,0.84
2024-01-05T04:55:47.993Z,0.82
2024-01-05T04:58:14.575Z,0.86
2024-01-05T05:00:41.213Z,0.87
2024-01-05T05:03:07.872Z,0.86
2024-01-05T05:05:34.473Z,0.96
2024-01-05T05:08:01.088Z,0.77
2024-01-05T05:10:27.699Z,0.71
2024-01-05T05:12:54.357Z,0.54
2024-01-05T05:15:21.235Z,0.44
2024-01-05T05:17:48.170Z,0.43
2024-01-05T05:20:15.254Z,0.48
2024-01-05T05:22:41.822Z,0.57
2024-01-05T05:25:08.807Z,0.62
2024-01-05T05:27:35.430Z,0.74
2024-01-05T05:30:06.511Z,0.66
2024-01-05T05:32:33.692Z,0.65
2024-01-05T05:35:00.376Z,0.67
2024-01-05T05:37:27.013Z,0.77
2024-01-05T05:39:53.606Z,0.78
2024-01-05T05:42:20.209Z,0.89
2024-01-05T05:44:46.763Z,0.64
2024-01-05T05:47:13.432Z,0.61
2024-01-05T05:49:40.105Z,0.61
2024-01-05T05:52:07.018Z,0.61
2024-01-05T05:54:33.627Z,0.61
2024-01-05T05:57:00.299Z,0.61
2024-01-05T05:59:26.866Z,0.75
2024-01-05T06:01:53.395Z,0.81
2024-01-05T06:04:20.000Z,0.74
2024-01-05T06:06:47.462Z,0.61
2024-01-05T06:09:14.107Z,0.60
2024-01-05T06:11:40.688Z,0.64
2024-01-05T06:14:07.233Z,0.70
2024-01-05T06:16:33.799Z,0.58
2024-01-05T06:19:00.435Z,0.61
2024-01-05T06:21:27.016Z,0.67
2024-01-05T06:23:53.610Z,0.67
2024-01-05T06:26:20.499Z,0.65
2024-01-05T06:28:47.050Z,0.57
2024-01-05T06:31:15.043Z,0.40
2024-01-05T06:33:41.747Z,0.30
2024-01-05T06:36:08.427Z,0.28
2024-01-05T06:38:35.099Z,0.31
2024-01-05T06:41:01.671Z,0.43
2024-01-05T06:43:28.202Z,0.57
2024-01-05T06:45:54.769Z,0.61
2024-01-05T06:48:21.508Z,0.67
2024-01-05T06:50:48.275Z,0.75
2024-01-05T06:53:14.867Z,0.79
2024-01-05T06:55:41.403Z,0.90
2024-01-05T06:58:07.948Z,0.90
2024-01-05T07:00:34.595Z,0.90
2024-01-05T07:03:02.428Z,0.81
2024-01-05T07:05:29.001Z,0.79
2024-01-05T07:07:55.568Z,0.76
2024-01-05T07:10:22.157Z,0.84
2024-01-05T07:12:48.665Z,0.93
2024-01-05T07:15:15.461Z,0.85
2024-01-05T07:17:44.012Z,0.99
2024-01-05T07:20:11.093Z,1.04
2024-01-05T07:22:37.601Z,1.15
2024-01-05T07:25:04.502Z,1.17
2024-01-05T07:27:31.028Z,1.12
2024-01-05T07:29:57.616Z,1.27
2024-01-05T07:32:24.190Z,1.31
2024-01-05T07:34:50.703Z,1.32
2024-01-05T07:37:17.228Z,1.35
2024-01-05T07:39:43.821Z,1.52
2024-01-05T07:42:10.356Z,1.64
2024-01-05T07:44:36.990Z,1.65
2024-01-05T07:47:03.555Z,1.77
2024-01-05T07:49:30.261Z,1.76
2024-01-05T07:51:57.048Z,1.81
2024-01-05T07:54:23.645Z,1.85
2024-01-05T07:56:50.204Z,1.86
2024-01-05T07:59:16.825Z,1.91
2024-01-05T08:01:43.596Z,1.97
2024-01-05T08:04:10.470Z,2.02
2024-01-05T08:06:37.167Z,2.09
2024-01-05T08:09:04.049Z,2.23
2024-01-05T08:11:30.654Z,2.38
2024-01-05T08:13:57.239Z,2.52
2024-01-05T08:16:23.781Z,2.63
2024-01-05T08:18:50.886Z,2.78
2024-01-05T08:21:17.489Z,2.85
2024-01-05T08:23:44.042Z,2.97
2024-01-05T08:26:10.543Z,3.04
2024-01-05T08:28:37.127Z,3.09
2024-01-05T08:31:03.817Z,3.16
2024-01-05T08:33:30.475Z,3.25
2024-01-05T08:35:57.165Z,3.43
2024-01-05T08:38:23.756Z,3.66
2024-01-05T08:40:50.279Z,3.75
2024-01-05T08:43:16.886Z,3.86
2024-01-05T08:45:43.530Z,3.96
2024-01-05T08:48:10.243Z,4.06
2024-01-05T08:50:36.894Z,4.25
2024-01-05T08:53:04.170Z,4.39
2024-01-05T08:55:30.778Z,4.52
2024-01-05T08:57:57.395Z,4.69
2024-01-05T09:00:24.037Z,4.70
2024-01-05T09:02:50.810Z,4.71
2024-01-05T09:05:17.480Z,4.73
2024-01-05T09:07:44.144Z,4.78
2024-01-05T09:10:10.697Z,4.86
2024-01-05T09:12:38.828Z,4.99
2024-01-05T09:15:06.558Z,5.03
2024-01-05T09:17:33.240Z,5.08
2024-01-05T09:19:59.870Z,5.16
2024-01-05T09:22:26.574Z,5.30
2024-01-05T09:24:53.133Z,5.32
2024-01-05T09:27:19.838Z,5.50
2024-01-05T09:29:46.392Z,5.48
2024-01-05T09:32:13.190Z,5.55
2024-01-05T09:34:42.215Z,5.63
2024-01-05T09:37:08.740Z,5.71
2024-01-05T09:39:35.327Z,5.97
2024-01-05T09:42:01.959Z,6.13
2024-01-05T09:44:30.822Z,6.13
2024-01-05T09:46:57.759Z,6.10
2024-01-05T09:49:24.655Z,6.13
2024-01-05T09:51:52.803Z,6.15
2024-01-05T09:54:19.440Z,6.20
2024-01-05T09:56:49.175Z,6.28
2024-01-05T09:59:15.699Z,6.39
2024-01-05T10:01:44.086Z,6.49
2024-01-05T10:04:10.811Z,6.62
2024-01-05T10:06:37.446Z,6.82
2024-01-05T10:09:04.200Z,6.97
2024-01-05T10:11:35.676Z,7.03
2024-01-05T10:14:08.994Z,7.14
2024-01-05T10:16:35.613Z,7.24
2024-01-05T10:19:11.249Z,7.34
2024-01-05T10:21:38.327Z,7.39
2024-01-05T10:24:05.245Z,7.53
2024-01-05T10:26:31.814Z,7.59
2024-01-05T10:29:00.350Z,7.77
2024-01-05T10:31:27.040Z,7.92
2024-01-05T10:33:55.591Z,8.03
2024-01-05T10:36:23.722Z,8.19
2024-01-05T10:38:51.187Z,8.51
2024-01-05T10:41:18.207Z,8.60
2024-01-05T10:43:45.594Z,9.01
2024-01-05T10:46:12.680Z,9.39
2024-01-05T10:48:41.221Z,9.73
2024-01-05T10:51:08.512Z,9.92
2024-01-05T10:53:38.870Z,10.31
2024-01-05T10:56:07.846Z,10.52
2024-01-05T10:58:34.481Z,10.72
2024-01-05T11:01:02.350Z,10.80
2024-01-05T11:03:41.556Z,10.90
2024-01-05T11:06:08.869Z,11.06
2024-01-05T11:08:53.600Z,11.09
2024-01-05T11:11:36.826Z,11.01
2024-01-05T11:14:27.706Z,11.32
2024-01-05T11:17:08.363Z,11.57
2024-01-05T11:20:14.981Z,11.80
2024-01-05T11:22:47.269Z,11.84
2024-01-05T11:25:15.200Z,11.79
2024-01-05T11:27:45.801Z,11.84
2024-01-05T11:30:12.754Z,11.81
2024-01-05T11:32:40.219Z,11.81
2024-01-05T11:35:18.923Z,11.83
2024-01-05T11:37:45.904Z,11.87
2024-01-05T11:40:29.459Z,12.00
2024-01-05T11:42:57.018Z,12.07
2024-01-05T11:45:45.411Z,12.19
2024-01-05T11:48:35.827Z,12.34
2024-01-05T11:51:10.594Z,12.31
2024-01-05T11:53:37.700Z,12.27
2024-01-05T11:56:05.658Z,12.31
2024-01-05T11:58:32.298Z,12.40
2024-01-05T12:01:04.035Z,12.39
2024-01-05T12:03:30.990Z,12.45
2024-01-05T12:06:00.651Z,12.45
2024-01-05T12:08:27.898Z,12.50
2024-01-05T12:10:55.352Z,12.47
2024-01-05T12:13:22.695Z,12.45
2024-01-05T12:15:56.186Z,12.57
2024-01-05T12:18:34.305Z,12.61
2024-01-05T12:21:05.007Z,12.66
2024-01-05T12:23:31.685Z,12.75
2024-01-05T12:26:02.013Z,12.82
2024-01-05T12:28:30.037Z,12.83
2024-01-05T12:30:58.248Z,12.80
2024-01-05T12:33:26.754Z,12.87
2024-01-05T12:35:53.819Z,12.85
2024-01-05T12:38:27.575Z,12.79
2024-01-05T12:41:13.062Z,12.81
2024-01-05T12:43:45.753Z,12.78
2024-01-05T12:46:13.017Z,12.78
2024-01-05T12:48:40.024Z,12.77
2024-01-05T12:51:14.076Z,12.77
2024-01-05T12:53:40.896Z,12.78
2024-01-05T12:56:12.254Z,12.91
2024-01-05T12:58:40.671Z,12.92
2024-01-05T13:01:15.255Z,12.85
2024-01-05T13:03:48.243Z,12.91
2024-01-05T13:06:14.939Z,13.00
2024-01-05T13:08:41.516Z,13.09
2024-01-05T13:11:08.151Z,13.04
2024-01-05T13:13:34.797Z,13.05
2024-01-05T13:16:01.416Z,13.02
2024-01-05T13:18:28.185Z,13.03
2024-01-05T13:20:54.898Z,12.99
2024-01-05T13:23:21.447Z,13.00
2024-01-05T13:25:48.183Z,12.99
2024-01-05T13:28:14.687Z,12.90
2024-01-05T13:30:41.438Z,12.80
2024-01-05T13:33:08.227Z,12.77
2024-01-05T13:35:34.826Z,12.75
2024-01-05T13:38:01.408Z,12.67
2024-01-05T13:40:27.964Z,12.61
2024-01-05T13:42:54.460Z,12.58
2024-01-05T13:45:21.076Z,12.56
2024-01-05T13:47:47.993Z,12.59
2024-01-05T13:50:14.584Z,12.64
2024-01-05T13:52:41.822Z,12.55
2024-01-05T13:55:09.017Z,12.45
2024-01-05T13:57:35.490Z,12.34
2024-01-05T14:00:02.463Z,12.27
2024-01-05T14:02:29.119Z,12.16
2024-01-05T14:04:55.832Z,12.07
2024-01-05T14:07:22.468Z,12.00
2024-01-05T14:09:49.140Z,11.92
2024-01-05T14:12:15.779Z,11.84
2024-01-05T14:14:42.426Z,11.77
2024-01-05T14:17:09.137Z,11.72
2024-01-05T14:19:35.826Z,11.65
2024-01-05T14:22:02.486Z,11.56
2024-01-05T14:24:29.105Z,11.50
2024-01-05T14:26:56.339Z,11.44
2024-01-05T14:29:24.072Z,11.39
2024-01-05T14:31:52.049Z,11.36
2024-01-05T14:34:18.721Z,11.42
2024-01-05T14:36:45.290Z,11.43
2024-01-05T14:39:11.870Z,11.33
2024-01-05T14:41:38.606Z,11.21
2024-01-05T14:44:05.411Z,11.10
2024-01-05T14:46:32.155Z,11.01
2024-01-05T14:48:59.054Z,10.96
2024-01-05T14:51:26.944Z,10.85
2024-01-05T14:53:53.498Z,10.66
2024-01-05T14:56:20.093Z,10.59
2024-01-05T14:58:48.857Z,10.43
2024-01-05T15:01:17.475Z,10.27
2024-01-05T15:03:44.307Z,10.30
2024-01-05T15:06:11.806Z,10.35
2024-01-05T15:08:38.656Z,10.34
2024-01-05T15:11:06.609Z,10.29
2024-01-05T15:13:33.522Z,10.25
2024-01-05T15:16:00.722Z,10.21
2024-01-05T15:18:27.730Z,10.18
2024-01-05T15:20:55.143Z,10.10
2024-01-05T15:23:21.753Z,9.97
2024-01-05T15:25:48.540Z,9.91
2024-01-05T15:28:15.367Z,9.81
2024-01-05T15:30:42.070Z,9.83
2024-01-05T15:33:08.905Z,9.73
2024-01-05T15:35:37.236Z,9.72
2024-01-05T15:38:05.056Z,9.77
2024-01-05T15:40:33.172Z,9.71
2024-01-05T15:43:00.886Z,9.56
2024-01-05T15:45:28.033Z,9.51
2024-01-05T15:47:54.722Z,9.48
2024-01-05T15:50:21.301Z,9.44
2024-01-05T15:52:48.083Z,9.37
2024-01-05T15:55:14.643Z,9.36
2024-01-05T15:57:41.226Z,9.37
2024-01-05T16:00:08.654Z,9.21
2024-01-05T16:02:35.212Z,9.13
2024-01-05T16:05:01.788Z,9.10
2024-01-05T16:07:28.388Z,9.08
2024-01-05T16:09:54.987Z,9.07
2024-01-05T16:12:21.578Z,8.96
2024-01-05T16:14:48.483Z,8.93
2024-01-05T16:17:15.335Z,9.00
2024-01-05T16:19:41.990Z,8.98
2024-01-05T16:22:08.700Z,8.92
2024-01-05T16:24:35.291Z,8.88
2024-01-05T16:27:01.868Z,8.87
2024-01-05T16:29:28.476Z,8.87
2024-01-05T16:31:55.053Z,8.83
2024-01-05T16:34:21.766Z,8.81
2024-01-05T16:36:48.489Z,8.85
2024-01-05T16:39:15.090Z,8.81
2024-01-05T16:41:41.683Z,8.73
2024-01-05T16:44:08.255Z,8.65
2024-01-05T16:46:34.746Z,8.72
2024-01-05T16:49:01.414Z,8.76
2024-01-05T16:51:30.446Z,8.75
2024-01-05T16:53:58.747Z,8.74
2024-01-05T16:56:25.339Z,8.77
2024-01-05T16:58:56.003Z,8.76
2024-01-05T17:01:26.203Z,9.07
2024-01-05T17:03:53.029Z,9.15
2024-01-05T17:06:20.553Z,9.23
2024-01-05T17:08:47.495Z,9.23
2024-01-05T17:11:14.069Z,9.19
2024-01-05T17:13:40.593Z,8.98
2024-01-05T17:16:11.155Z,8.87
2024-01-05T17:18:38.485Z,8.79
2024-01-05T17:21:05.357Z,8.66
2024-01-05T17:23:32.114Z,8.60
2024-01-05T17:25:58.629Z,8.49
2024-01-05T17:28:25.213Z,8.40
2024-01-05T17:30:51.863Z,8.33
2024-01-05T17:33:18.534Z,8.22
2024-01-05T17:35:45.206Z,8.22
2024-01-05T17:38:11.803Z,8.21
2024-01-05T17:40:38.358Z,8.16
2024-01-05T17:43:04.941Z,8.21
2024-01-05T17:45:31.544Z,8.26
2024-01-05T17:47:58.234Z,8.29
2024-01-05T17:50:24.971Z,8.29
2024-01-05T17:52:51.514Z,8.17
2024-01-05T17:55:18.034Z,8.16
2024-01-05T17:57:44.654Z,8.11
2024-01-05T18:00:11.954Z,8.04
2024-01-05T18:02:38.939Z,7.96
2024-01-05T18:05:06.119Z,7.93
2024-01-05T18:07:32.770Z,7.95
2024-01-05T18:09:59.424Z,7.94
2024-01-05T18:12:26.068Z,7.99
2024-01-05T18:14:52.644Z,8.00
2024-01-05T18:17:19.214Z,7.96
2024-01-05T18:19:45.854Z,7.98
2024-01-05T18:22:13.402Z,7.75
2024-01-05T18:24:39.978Z,7.72
2024-01-05T18:27:06.575Z,7.77
2024-01-05T18:29:33.179Z,7.79
2024-01-05T18:31:59.797Z,7.78
2024-01-05T18:34:27.018Z,7.84
2024-01-05T18:36:54.107Z,7.86
2024-01-05T18:39:21.216Z,7.98
2024-01-05T18:41:48.934Z,7.94
2024-01-05T18:44:15.810Z,7.86
2024-01-05T18:46:42.620Z,7.73
2024-01-05T18:49:09.531Z,7.71
2024-01-05T18:51:36.487Z,7.80
2024-01-05T18:54:03.289Z,7.77
2024-01-05T18:56:29.875Z,7.81
2024-01-05T18:58:56.527Z,7.81
2024-01-05T19:01:23.283Z,7.86
2024-01-05T19:03:49.924Z,8.00
2024-01-05T19:06:16.626Z,8.23
2024-01-05T19:08:43.507Z,8.33
2024-01-05T19:11:10.202Z,8.27
2024-01-05T19:13:36.753Z,8.11
2024-01-05T19:16:03.331Z,7.96
2024-01-05T19:18:30.377Z,7.87
2024-01-05T19:20:56.994Z,7.77
2024-01-05T19:23:23.543Z,7.83
2024-01-05T19:25:50.269Z,7.86
2024-01-05T19:28:16.856Z,7.88
2024-01-05T19:30:43.536Z,7.86
2024-01-05T19:33:10.238Z,7.81
2024-01-05T19:35:36.789Z,7.82
2024-01-05T19:38:03.429Z,7.67
2024-01-05T19:40:29.959Z,7.52
2024-01-05T19:42:56.510Z,7.34
2024-01-05T19:45:23.109Z,7.32
2024-01-05T19:47:49.759Z,7.29
2024-01-05T19:50:16.460Z,7.35
2024-01-05T19:52:42.983Z,7.35
2024-01-05T19:55:09.660Z,7.25
2024-01-05T19:57:36.264Z,7.25
2024-01-05T20:00:04.377Z,7.22
2024-01-05T20:02:31.054Z,7.25
2024-01-05T20:04:57.601Z,7.26
2024-01-05T20:07:24.279Z,7.15
2024-01-05T20:09:50.964Z,7.05
2024-01-05T20:12:17.801Z,7.06
2024-01-05T20:14:44.594Z,7.08
2024-01-05T20:17:11.404Z,6.93
2024-01-05T20:19:38.030Z,6.96
2024-01-05T20:22:05.588Z,6.94
2024-01-05T20:24:32.744Z,6.98
2024-01-05T20:27:01.526Z,6.99
2024-01-05T20:29:28.114Z,7.04
2024-01-05T20:31:54.684Z,7.10
2024-01-05T20:34:21.983Z,7.13
2024-01-05T20:36:48.673Z,7.09
2024-01-05T20:39:15.392Z,6.99
2024-01-05T20:41:41.991Z,6.94
2024-01-05T20:44:11.171Z,6.95
2024-01-05T20:46:41.697Z,6.89
2024-01-05T20:49:08.433Z,6.93
2024-01-05T20:51:35.090Z,6.89
2024-01-05T20:54:01.718Z,6.82
2024-01-05T20:56:28.236Z,6.66
2024-01-05T20:58:54.805Z,6.61
2024-01-05T21:01:21.570Z,6.67
2024-01-05T21:03:48.285Z,6.75
2024-01-05T21:06:14.918Z,6.82
2024-01-05T21:08:41.478Z,6.80
2024-01-05T21:11:07.994Z,6.74
2024-01-05T21:13:34.554Z,6.62
2024-01-05T21:16:05.260Z,6.56
2024-01-05T21:18:31.930Z,6.55
2024-01-05T21:21:00.423Z,6.57
2024-01-05T21:23:28.372Z,6.66
2024-01-05T21:25:54.911Z,6.65
2024-01-05T21:28:21.455Z,6.75
2024-01-05T21:30:48.073Z,6.72
2024-01-05T21:33:14.911Z,6.64
2024-01-05T21:35:41.554Z,6.52
2024-01-05T21:38:08.133Z,6.43
2024-01-05T21:40:34.672Z,6.41
2024-01-05T21:43:01.277Z,6.48
2024-01-05T21:45:27.979Z,6.57
2024-01-05T21:47:54.668Z,6.56
2024-01-05T21:50:21.588Z,6.51
2024-01-05T21:52:48.274Z,6.56
2024-01-05T21:55:14.827Z,6.57
2024-01-05T21:57:41.407Z,6.61
2024-01-05T22:00:08.696Z,6.64
2024-01-05T22:02:35.325Z,6.61
2024-01-05T22:05:01.915Z,6.55
2024-01-05T22:07:28.612Z,6.45
2024-01-05T22:09:55.267Z,6.44
2024-01-05T22:12:21.968Z,6.44
2024-01-05T22:14:48.633Z,6.39
2024-01-05T22:17:15.186Z,6.36
2024-01-05T22:19:41.856Z,6.44
2024-01-05T22:22:08.500Z,6.44
2024-01-05T22:24:35.143Z,6.49
2024-01-05T22:27:01.706Z,6.38
2024-01-05T22:29:28.242Z,6.41
2024-01-05T22:31:54.836Z,6.38
2024-01-05T22:34:21.496Z,6.33
2024-01-05T22:36:48.199Z,6.29
2024-01-05T22:39:14.752Z,6.23
2024-01-05T22:41:41.277Z,6.31
2024-01-05T22:44:07.862Z,6.37
2024-01-05T22:46:34.409Z,6.41
2024-01-05T22:49:01.125Z,6.38
2024-01-05T22:51:28.448Z,6.31
2024-01-05T22:53:55.077Z,6.27
2024-01-05T22:56:21.646Z,6.34
2024-01-05T22:58:48.319Z,6.43
2024-01-05T23:01:22.655Z,6.40
2024-01-05T23:03:50.789Z,6.35
2024-01-05T23:06:17.784Z,6.35
2024-01-05T23:08:45.065Z,6.34
2024-01-05T23:11:11.932Z,6.27
2024-01-05T23:13:38.486Z,6.25
2024-01-05T23:16:05.499Z,6.21
2024-01-05T23:18:32.781Z,6.11
2024-01-05T23:20:59.444Z,6.14
2024-01-05T23:23:25.976Z,6.17
2024-01-05T23:25:52.601Z,6.18
2024-01-05T23:28:19.132Z,6.22
2024-01-05T23:30:45.766Z,6.20
2024-01-05T23:33:12.608Z,6.27
2024-01-05T23:35:39.311Z,6.14
2024-01-05T23:38:05.886Z,6.02
2024-01-05T23:40:32.504Z,5.94
2024-01-05T23:42:59.044Z,5.88
2024-01-05T23:45:25.621Z,5.89
2024-01-05T23:47:52.188Z,5.88
2024-01-05T23:50:18.718Z,5.85
2024-01-05T23:52:45.254Z,5.88
2024-01-05T23:55:11.864Z,5.70
2024-01-05T23:57:38.485Z,5.56
